sensor_id;sensor_type;location;lat;lon;timestamp;P1;durP1;ratioP1;P2;durP2;ratioP2
42186;SDS011;27858;51.414;0.018;2023-06-22T04:02:02;3.72;;;2.70;;
42186;SDS011;27858;51.414;0.018;2023-06-22T04:04:29;4.15;;;2.70;;
42186;SDS011;27858;51.414;0.018;2023-06-22T04:06:56;4.03;;;2.60;;
42186;SDS011;27858;51.414;0.018;2023-06-22T04:09:23;4.30;;;2.60;;
42186;SDS011;27858;51.414;0.018;2023-06-22T04:11:50;4.88;;;2.45;;
42186;SDS011;27858;51.414;0.018;2023-06-22T04:14:16;3.78;;;3.13;;
42186;SDS011;27858;51.414;0.018;2023-06-22T04:16:43;5.20;;;3.15;;
42186;SDS011;27858;51.414;0.018;2023-06-22T04:19:10;4.25;;;2.83;;
42186;SDS011;27858;51.414;0.018;2023-06-22T04:21:42;4.38;;;2.35;;
42186;SDS011;27858;51.414;0.018;2023-06-22T04:24:11;3.15;;;2.38;;
42186;SDS011;27858;51.414;0.018;2023-06-22T04:26:37;3.97;;;2.60;;
42186;SDS011;27858;51.414;0.018;2023-06-22T04:29:07;5.13;;;3.47;;
42186;SDS011;27858;51.414;0.018;2023-06-22T04:31:37;4.97;;;2.95;;
42186;SDS011;27858;51.414;0.018;2023-06-22T04:34:05;4.18;;;2.40;;
42186;SDS011;27858;51.414;0.018;2023-06-22T04:36:35;3.47;;;3.10;;
42186;SDS011;27858;51.414;0.018;2023-06-22T04:39:10;4.32;;;2.90;;
42186;SDS011;27858;51.414;0.018;2023-06-22T04:41:38;4.15;;;2.78;;
42186;SDS011;27858;51.414;0.018;2023-06-22T04:44:09;5.85;;;3.15;;
42186;SDS011;27858;51.414;0.018;2023-06-22T04:46:36;5.28;;;3.10;;
42186;SDS011;27858;51.414;0.018;2023-06-22T04:49:05;4.80;;;3.13;;
42186;SDS011;27858;51.414;0.018;2023-06-22T04:51:39;4.60;;;2.38;;
42186;SDS011;27858;51.414;0.018;2023-06-22T04:54:07;4.50;;;2.17;;
42186;SDS011;27858;51.414;0.018;2023-06-22T04:56:35;3.80;;;2.35;;
42186;SDS011;27858;51.414;0.018;2023-06-22T04:59:02;3.65;;;3.10;;
42186;SDS011;27858;51.414;0.018;2023-06-22T05:01:29;5.18;;;2.95;;
42186;SDS011;27858;51.414;0.018;2023-06-22T05:03:58;4.00;;;3.10;;
42186;SDS011;27858;51.414;0.018;2023-06-22T05:06:27;3.83;;;3.08;;
42186;SDS011;27858;51.414;0.018;2023-06-22T05:08:55;5.60;;;3.53;;
42186;SDS011;27858;51.414;0.018;2023-06-22T05:11:27;4.90;;;2.85;;
42186;SDS011;27858;51.414;0.018;2023-06-22T05:13:54;5.03;;;3.08;;
42186;SDS011;27858;51.414;0.018;2023-06-22T05:16:22;3.20;;;2.38;;
42186;SDS011;27858;51.414;0.018;2023-06-22T05:18:51;7.50;;;2.90;;
42186;SDS011;27858;51.414;0.018;2023-06-22T05:21:21;6.22;;;3.13;;
42186;SDS011;27858;51.414;0.018;2023-06-22T05:23:50;5.07;;;3.30;;
42186;SDS011;27858;51.414;0.018;2023-06-22T05:26:18;4.13;;;3.05;;
42186;SDS011;27858;51.414;0.018;2023-06-22T05:28:46;8.52;;;3.95;;
42186;SDS011;27858;51.414;0.018;2023-06-22T05:31:14;5.03;;;2.83;;
42186;SDS011;27858;51.414;0.018;2023-06-22T05:33:41;7.10;;;2.85;;
42186;SDS011;27858;51.414;0.018;2023-06-22T05:36:09;4.60;;;3.17;;
42186;SDS011;27858;51.414;0.018;2023-06-22T05:38:36;6.22;;;3.05;;
42186;SDS011;27858;51.414;0.018;2023-06-22T05:41:03;5.78;;;3.28;;
42186;SDS011;27858;51.414;0.018;2023-06-22T05:43:30;5.20;;;3.47;;
42186;SDS011;27858;51.414;0.018;2023-06-22T05:45:58;3.90;;;2.47;;
42186;SDS011;27858;51.414;0.018;2023-06-22T05:48:26;8.68;;;3.90;;
42186;SDS011;27858;51.414;0.018;2023-06-22T05:50:55;4.53;;;3.15;;
42186;SDS011;27858;51.414;0.018;2023-06-22T05:53:23;3.53;;;2.95;;
42186;SDS011;27858;51.414;0.018;2023-06-22T05:55:49;8.75;;;3.75;;
42186;SDS011;27858;51.414;0.018;2023-06-22T05:58:16;5.53;;;3.85;;
42186;SDS011;27858;51.414;0.018;2023-06-22T06:00:43;5.35;;;3.00;;
42186;SDS011;27858;51.414;0.018;2023-06-22T06:03:10;4.93;;;3.00;;
42186;SDS011;27858;51.414;0.018;2023-06-22T06:05:40;7.18;;;3.72;;
42186;SDS011;27858;51.414;0.018;2023-06-22T06:08:07;8.63;;;3.75;;
42186;SDS011;27858;51.414;0.018;2023-06-22T06:10:34;10.20;;;4.00;;
42186;SDS011;27858;51.414;0.018;2023-06-22T06:13:01;5.50;;;3.67;;
42186;SDS011;27858;51.414;0.018;2023-06-22T06:15:30;4.85;;;3.55;;
42186;SDS011;27858;51.414;0.018;2023-06-22T06:17:58;5.45;;;3.08;;
42186;SDS011;27858;51.414;0.018;2023-06-22T06:20:25;8.55;;;3.90;;
42186;SDS011;27858;51.414;0.018;2023-06-22T06:22:56;5.07;;;3.45;;
42186;SDS011;27858;51.414;0.018;2023-06-22T06:25:23;7.70;;;3.40;;
42186;SDS011;27858;51.414;0.018;2023-06-22T06:27:51;9.60;;;3.83;;
42186;SDS011;27858;51.414;0.018;2023-06-22T06:30:20;4.70;;;3.60;;
42186;SDS011;27858;51.414;0.018;2023-06-22T06:32:49;4.82;;;3.25;;
42186;SDS011;27858;51.414;0.018;2023-06-22T06:35:16;6.88;;;3.13;;
42186;SDS011;27858;51.414;0.018;2023-06-22T06:37:44;11.13;;;3.55;;
42186;SDS011;27858;51.414;0.018;2023-06-22T06:40:11;8.02;;;3.30;;
42186;SDS011;27858;51.414;0.018;2023-06-22T06:42:47;9.90;;;3.25;;
42186;SDS011;27858;51.414;0.018;2023-06-22T06:45:21;3.97;;;2.95;;
42186;SDS011;27858;51.414;0.018;2023-06-22T06:47:49;5.35;;;3.15;;
42186;SDS011;27858;51.414;0.018;2023-06-22T06:50:17;10.55;;;3.97;;
42186;SDS011;27858;51.414;0.018;2023-06-22T06:52:45;7.72;;;3.92;;
42186;SDS011;27858;51.414;0.018;2023-06-22T06:55:12;3.83;;;2.90;;
42186;SDS011;27858;51.414;0.018;2023-06-22T06:57:40;9.05;;;4.78;;
42186;SDS011;27858;51.414;0.018;2023-06-22T07:00:08;7.55;;;3.33;;
42186;SDS011;27858;51.414;0.018;2023-06-22T07:02:39;7.18;;;3.50;;
42186;SDS011;27858;51.414;0.018;2023-06-22T07:05:08;7.80;;;3.58;;
42186;SDS011;27858;51.414;0.018;2023-06-22T07:07:35;5.05;;;2.97;;
42186;SDS011;27858;51.414;0.018;2023-06-22T07:10:04;5.53;;;3.55;;
42186;SDS011;27858;51.414;0.018;2023-06-22T07:12:32;3.95;;;2.97;;
42186;SDS011;27858;51.414;0.018;2023-06-22T07:15:06;7.07;;;4.10;;
42186;SDS011;27858;51.414;0.018;2023-06-22T07:17:35;3.45;;;2.55;;
42186;SDS011;27858;51.414;0.018;2023-06-22T07:20:02;7.15;;;3.42;;
42186;SDS011;27858;51.414;0.018;2023-06-22T07:22:38;6.47;;;3.78;;
42186;SDS011;27858;51.414;0.018;2023-06-22T07:25:07;4.53;;;3.30;;
42186;SDS011;27858;51.414;0.018;2023-06-22T07:27:45;6.88;;;3.83;;
42186;SDS011;27858;51.414;0.018;2023-06-22T07:30:22;4.00;;;2.97;;
42186;SDS011;27858;51.414;0.018;2023-06-22T07:32:49;6.93;;;4.22;;
42186;SDS011;27858;51.414;0.018;2023-06-22T07:35:16;3.92;;;2.92;;
42186;SDS011;27858;51.414;0.018;2023-06-22T07:37:43;4.38;;;2.95;;
42186;SDS011;27858;51.414;0.018;2023-06-22T07:40:10;5.72;;;3.50;;
42186;SDS011;27858;51.414;0.018;2023-06-22T07:42:37;6.07;;;4.28;;
42186;SDS011;27858;51.414;0.018;2023-06-22T07:45:05;6.30;;;3.90;;
42186;SDS011;27858;51.414;0.018;2023-06-22T07:47:34;9.98;;;4.03;;
42186;SDS011;27858;51.414;0.018;2023-06-22T07:50:02;7.13;;;3.65;;
42186;SDS011;27858;51.414;0.018;2023-06-22T07:52:29;4.53;;;2.92;;
42186;SDS011;27858;51.414;0.018;2023-06-22T07:54:56;11.10;;;4.15;;
42186;SDS011;27858;51.414;0.018;2023-06-22T07:57:23;4.25;;;3.85;;
42186;SDS011;27858;51.414;0.018;2023-06-22T08:00:02;4.38;;;3.47;;
42186;SDS011;27858;51.414;0.018;2023-06-22T08:02:39;4.38;;;3.33;;
42186;SDS011;27858;51.414;0.018;2023-06-22T08:05:08;7.78;;;3.70;;
42186;SDS011;27858;51.414;0.018;2023-06-22T08:07:56;6.55;;;3.83;;
42186;SDS011;27858;51.414;0.018;2023-06-22T08:10:23;5.15;;;3.35;;
42186;SDS011;27858;51.414;0.018;2023-06-22T08:12:49;5.90;;;3.30;;
42186;SDS011;27858;51.414;0.018;2023-06-22T08:15:18;4.47;;;3.83;;
42186;SDS011;27858;51.414;0.018;2023-06-22T08:17:45;8.95;;;3.42;;
42186;SDS011;27858;51.414;0.018;2023-06-22T08:20:12;4.72;;;3.50;;
42186;SDS011;27858;51.414;0.018;2023-06-22T08:22:40;5.40;;;3.05;;
42186;SDS011;27858;51.414;0.018;2023-06-22T08:25:08;6.55;;;2.72;;
42186;SDS011;27858;51.414;0.018;2023-06-22T08:27:35;5.68;;;2.88;;
42186;SDS011;27858;51.414;0.018;2023-06-22T08:30:02;5.90;;;3.35;;
42186;SDS011;27858;51.414;0.018;2023-06-22T08:32:29;7.28;;;2.83;;
42186;SDS011;27858;51.414;0.018;2023-06-22T08:34:58;5.30;;;3.38;;
42186;SDS011;27858;51.414;0.018;2023-06-22T08:37:25;4.10;;;2.92;;
42186;SDS011;27858;51.414;0.018;2023-06-22T08:40:00;9.52;;;3.47;;
42186;SDS011;27858;51.414;0.018;2023-06-22T08:42:27;9.05;;;3.08;;
42186;SDS011;27858;51.414;0.018;2023-06-22T08:44:55;6.05;;;3.75;;
42186;SDS011;27858;51.414;0.018;2023-06-22T08:47:22;6.13;;;3.70;;
42186;SDS011;27858;51.414;0.018;2023-06-22T08:49:49;12.32;;;6.78;;
42186;SDS011;27858;51.414;0.018;2023-06-22T08:52:17;7.07;;;3.78;;
42186;SDS011;27858;51.414;0.018;2023-06-22T08:54:46;5.78;;;3.80;;
42186;SDS011;27858;51.414;0.018;2023-06-22T08:57:13;6.88;;;3.75;;
42186;SDS011;27858;51.414;0.018;2023-06-22T08:59:40;8.05;;;3.63;;
42186;SDS011;27858;51.414;0.018;2023-06-22T09:02:07;8.75;;;4.13;;
42186;SDS011;27858;51.414;0.018;2023-06-22T09:04:34;4.88;;;3.53;;
42186;SDS011;27858;51.414;0.018;2023-06-22T09:07:01;5.88;;;4.22;;
42186;SDS011;27858;51.414;0.018;2023-06-22T09:09:31;7.85;;;3.97;;
42186;SDS011;27858;51.414;0.018;2023-06-22T09:11:57;8.75;;;4.43;;
42186;SDS011;27858;51.414;0.018;2023-06-22T09:14:24;5.47;;;3.88;;
42186;SDS011;27858;51.414;0.018;2023-06-22T09:16:51;5.93;;;3.78;;
42186;SDS011;27858;51.414;0.018;2023-06-22T09:19:18;3.92;;;3.05;;
42186;SDS011;27858;51.414;0.018;2023-06-22T09:21:44;3.90;;;2.78;;
42186;SDS011;27858;51.414;0.018;2023-06-22T09:24:11;9.25;;;3.45;;
42186;SDS011;27858;51.414;0.018;2023-06-22T09:26:39;6.60;;;3.08;;
42186;SDS011;27858;51.414;0.018;2023-06-22T09:29:05;2.83;;;2.55;;
42186;SDS011;27858;51.414;0.018;2023-06-22T09:31:32;5.60;;;3.53;;
42186;SDS011;27858;51.414;0.018;2023-06-22T09:33:59;4.85;;;3.22;;
42186;SDS011;27858;51.414;0.018;2023-06-22T09:36:26;4.50;;;3.08;;
42186;SDS011;27858;51.414;0.018;2023-06-22T09:38:53;9.20;;;4.40;;
42186;SDS011;27858;51.414;0.018;2023-06-22T09:41:24;7.07;;;3.38;;
42186;SDS011;27858;51.414;0.018;2023-06-22T09:43:51;7.75;;;3.88;;
42186;SDS011;27858;51.414;0.018;2023-06-22T09:46:21;6.05;;;3.08;;
42186;SDS011;27858;51.414;0.018;2023-06-22T09:48:51;5.32;;;3.45;;
42186;SDS011;27858;51.414;0.018;2023-06-22T09:51:18;5.25;;;3.28;;
42186;SDS011;27858;51.414;0.018;2023-06-22T09:53:46;4.60;;;2.95;;
42186;SDS011;27858;51.414;0.018;2023-06-22T09:56:13;7.35;;;2.97;;
42186;SDS011;27858;51.414;0.018;2023-06-22T09:58:43;7.68;;;3.33;;
42186;SDS011;27858;51.414;0.018;2023-06-22T10:01:11;4.20;;;3.10;;
42186;SDS011;27858;51.414;0.018;2023-06-22T10:03:38;4.63;;;3.33;;
42186;SDS011;27858;51.414;0.018;2023-06-22T10:06:08;4.93;;;2.80;;
42186;SDS011;27858;51.414;0.018;2023-06-22T10:08:35;3.25;;;2.65;;
42186;SDS011;27858;51.414;0.018;2023-06-22T10:11:03;4.22;;;3.20;;
42186;SDS011;27858;51.414;0.018;2023-06-22T10:13:30;5.18;;;3.15;;
42186;SDS011;27858;51.414;0.018;2023-06-22T10:15:57;9.73;;;3.72;;
42186;SDS011;27858;51.414;0.018;2023-06-22T10:18:24;4.18;;;2.60;;
42186;SDS011;27858;51.414;0.018;2023-06-22T10:20:51;5.60;;;2.45;;
42186;SDS011;27858;51.414;0.018;2023-06-22T10:23:19;6.22;;;2.40;;
42186;SDS011;27858;51.414;0.018;2023-06-22T10:25:49;6.45;;;2.22;;
42186;SDS011;27858;51.414;0.018;2023-06-22T10:28:16;4.85;;;2.78;;
42186;SDS011;27858;51.414;0.018;2023-06-22T10:30:43;4.43;;;2.63;;
42186;SDS011;27858;51.414;0.018;2023-06-22T10:33:10;3.10;;;2.30;;
42186;SDS011;27858;51.414;0.018;2023-06-22T10:35:38;4.78;;;3.30;;
42186;SDS011;27858;51.414;0.018;2023-06-22T10:38:05;4.00;;;2.33;;
42186;SDS011;27858;51.414;0.018;2023-06-22T10:40:32;5.80;;;3.10;;
42186;SDS011;27858;51.414;0.018;2023-06-22T10:42:59;9.57;;;3.28;;
42186;SDS011;27858;51.414;0.018;2023-06-22T10:45:26;8.18;;;2.70;;
42186;SDS011;27858;51.414;0.018;2023-06-22T10:47:57;6.65;;;2.95;;
42186;SDS011;27858;51.414;0.018;2023-06-22T10:50:24;3.53;;;2.50;;
42186;SDS011;27858;51.414;0.018;2023-06-22T10:52:51;3.38;;;2.60;;
42186;SDS011;27858;51.414;0.018;2023-06-22T10:55:19;7.50;;;3.08;;
42186;SDS011;27858;51.414;0.018;2023-06-22T10:57:52;3.92;;;2.58;;
42186;SDS011;27858;51.414;0.018;2023-06-22T11:00:19;3.08;;;2.45;;
42186;SDS011;27858;51.414;0.018;2023-06-22T11:02:47;4.55;;;2.08;;
42186;SDS011;27858;51.414;0.018;2023-06-22T11:05:14;7.20;;;3.13;;
42186;SDS011;27858;51.414;0.018;2023-06-22T11:07:42;6.18;;;2.65;;
42186;SDS011;27858;51.414;0.018;2023-06-22T11:10:15;5.10;;;3.60;;
42186;SDS011;27858;51.414;0.018;2023-06-22T11:12:44;3.38;;;2.63;;
42186;SDS011;27858;51.414;0.018;2023-06-22T11:15:13;4.28;;;2.60;;
42186;SDS011;27858;51.414;0.018;2023-06-22T11:17:40;3.20;;;2.22;;
42186;SDS011;27858;51.414;0.018;2023-06-22T11:20:07;6.00;;;2.20;;
42186;SDS011;27858;51.414;0.018;2023-06-22T11:22:52;5.07;;;2.80;;
42186;SDS011;27858;51.414;0.018;2023-06-22T11:25:18;3.78;;;2.50;;
42186;SDS011;27858;51.414;0.018;2023-06-22T11:27:45;4.45;;;2.50;;
42186;SDS011;27858;51.414;0.018;2023-06-22T11:30:12;5.68;;;2.53;;
42186;SDS011;27858;51.414;0.018;2023-06-22T11:32:39;4.18;;;3.00;;
42186;SDS011;27858;51.414;0.018;2023-06-22T11:35:06;5.72;;;2.25;;
42186;SDS011;27858;51.414;0.018;2023-06-22T11:37:33;2.50;;;2.25;;
42186;SDS011;27858;51.414;0.018;2023-06-22T11:40:00;3.40;;;2.70;;
42186;SDS011;27858;51.414;0.018;2023-06-22T11:42:33;4.40;;;2.28;;
42186;SDS011;27858;51.414;0.018;2023-06-22T11:45:00;3.42;;;2.35;;
42186;SDS011;27858;51.414;0.018;2023-06-22T11:47:28;2.05;;;1.85;;
42186;SDS011;27858;51.414;0.018;2023-06-22T11:49:55;3.72;;;2.33;;
42186;SDS011;27858;51.414;0.018;2023-06-22T11:52:22;6.00;;;2.50;;
42186;SDS011;27858;51.414;0.018;2023-06-22T11:54:49;2.15;;;1.95;;
42186;SDS011;27858;51.414;0.018;2023-06-22T11:57:16;5.43;;;2.65;;
42186;SDS011;27858;51.414;0.018;2023-06-22T11:59:42;3.03;;;2.38;;
42186;SDS011;27858;51.414;0.018;2023-06-22T12:02:09;8.75;;;2.95;;
42186;SDS011;27858;51.414;0.018;2023-06-22T12:04:39;4.53;;;2.58;;
42186;SDS011;27858;51.414;0.018;2023-06-22T12:07:06;2.35;;;2.13;;
42186;SDS011;27858;51.414;0.018;2023-06-22T12:09:33;2.35;;;2.15;;
42186;SDS011;27858;51.414;0.018;2023-06-22T12:11:59;2.72;;;2.08;;
42186;SDS011;27858;51.414;0.018;2023-06-22T12:14:26;3.20;;;1.95;;
42186;SDS011;27858;51.414;0.018;2023-06-22T12:16:55;3.00;;;2.45;;
42186;SDS011;27858;51.414;0.018;2023-06-22T12:19:23;2.40;;;2.03;;
42186;SDS011;27858;51.414;0.018;2023-06-22T12:21:49;3.17;;;2.13;;
42186;SDS011;27858;51.414;0.018;2023-06-22T12:24:16;5.88;;;2.58;;
42186;SDS011;27858;51.414;0.018;2023-06-22T12:26:43;2.33;;;2.13;;
42186;SDS011;27858;51.414;0.018;2023-06-22T12:29:10;5.88;;;2.40;;
42186;SDS011;27858;51.414;0.018;2023-06-22T12:31:37;2.72;;;2.30;;
42186;SDS011;27858;51.414;0.018;2023-06-22T12:34:06;2.33;;;1.92;;
42186;SDS011;27858;51.414;0.018;2023-06-22T12:36:32;6.15;;;2.25;;
42186;SDS011;27858;51.414;0.018;2023-06-22T12:38:59;2.35;;;1.88;;
42186;SDS011;27858;51.414;0.018;2023-06-22T12:41:28;2.67;;;2.05;;
42186;SDS011;27858;51.414;0.018;2023-06-22T12:43:55;3.03;;;2.40;;
42186;SDS011;27858;51.414;0.018;2023-06-22T12:46:22;5.63;;;2.72;;
42186;SDS011;27858;51.414;0.018;2023-06-22T12:48:49;2.53;;;1.80;;
42186;SDS011;27858;51.414;0.018;2023-06-22T12:51:22;5.93;;;2.60;;
42186;SDS011;27858;51.414;0.018;2023-06-22T12:53:49;4.38;;;2.38;;
42186;SDS011;27858;51.414;0.018;2023-06-22T12:56:16;5.47;;;2.70;;
42186;SDS011;27858;51.414;0.018;2023-06-22T12:58:43;3.10;;;2.55;;
42186;SDS011;27858;51.414;0.018;2023-06-22T13:01:09;4.00;;;2.15;;
42186;SDS011;27858;51.414;0.018;2023-06-22T13:03:36;5.57;;;2.80;;
42186;SDS011;27858;51.414;0.018;2023-06-22T13:06:03;7.88;;;2.58;;
42186;SDS011;27858;51.414;0.018;2023-06-22T13:08:30;2.38;;;2.05;;
42186;SDS011;27858;51.414;0.018;2023-06-22T13:11:17;1.98;;;1.65;;
42186;SDS011;27858;51.414;0.018;2023-06-22T13:13:44;1.92;;;1.83;;
42186;SDS011;27858;51.414;0.018;2023-06-22T13:16:12;1.80;;;1.70;;
42186;SDS011;27858;51.414;0.018;2023-06-22T13:18:38;2.47;;;2.28;;
42186;SDS011;27858;51.414;0.018;2023-06-22T13:21:05;7.03;;;2.72;;
42186;SDS011;27858;51.414;0.018;2023-06-22T13:23:32;2.95;;;2.20;;
42186;SDS011;27858;51.414;0.018;2023-06-22T13:26:00;3.15;;;2.17;;
42186;SDS011;27858;51.414;0.018;2023-06-22T13:28:27;2.97;;;2.20;;
42186;SDS011;27858;51.414;0.018;2023-06-22T13:30:55;4.38;;;2.75;;
42186;SDS011;27858;51.414;0.018;2023-06-22T13:33:22;2.58;;;2.35;;
42186;SDS011;27858;51.414;0.018;2023-06-22T13:35:48;2.55;;;1.80;;
42186;SDS011;27858;51.414;0.018;2023-06-22T13:38:15;2.90;;;1.88;;
42186;SDS011;27858;51.414;0.018;2023-06-22T13:40:43;1.98;;;1.80;;
42186;SDS011;27858;51.414;0.018;2023-06-22T13:43:10;5.00;;;2.20;;
42186;SDS011;27858;51.414;0.018;2023-06-22T13:45:37;4.68;;;2.05;;
42186;SDS011;27858;51.414;0.018;2023-06-22T13:48:04;2.53;;;1.77;;
42186;SDS011;27858;51.414;0.018;2023-06-22T13:50:31;1.98;;;1.73;;
42186;SDS011;27858;51.414;0.018;2023-06-22T13:52:58;2.20;;;1.85;;
42186;SDS011;27858;51.414;0.018;2023-06-22T13:55:24;4.38;;;2.08;;
42186;SDS011;27858;51.414;0.018;2023-06-22T13:57:52;3.53;;;2.40;;
42186;SDS011;27858;51.414;0.018;2023-06-22T14:00:22;3.00;;;2.15;;
42186;SDS011;27858;51.414;0.018;2023-06-22T14:02:49;2.53;;;2.00;;
42186;SDS011;27858;51.414;0.018;2023-06-22T14:05:17;3.47;;;2.17;;
42186;SDS011;27858;51.414;0.018;2023-06-22T14:07:43;7.05;;;2.22;;
42186;SDS011;27858;51.414;0.018;2023-06-22T14:10:10;2.47;;;1.90;;
42186;SDS011;27858;51.414;0.018;2023-06-22T14:12:37;2.30;;;1.90;;
42186;SDS011;27858;51.414;0.018;2023-06-22T14:15:04;1.80;;;1.67;;
42186;SDS011;27858;51.414;0.018;2023-06-22T14:17:31;3.10;;;2.00;;
42186;SDS011;27858;51.414;0.018;2023-06-22T14:19:58;6.65;;;3.15;;
42186;SDS011;27858;51.414;0.018;2023-06-22T14:22:25;3.20;;;2.70;;
42186;SDS011;27858;51.414;0.018;2023-06-22T14:24:53;4.75;;;2.28;;
42186;SDS011;27858;51.414;0.018;2023-06-22T14:27:20;3.30;;;2.42;;
42186;SDS011;27858;51.414;0.018;2023-06-22T14:29:46;2.28;;;2.05;;
42186;SDS011;27858;51.414;0.018;2023-06-22T14:32:13;3.10;;;2.08;;
42186;SDS011;27858;51.414;0.018;2023-06-22T14:34:40;1.70;;;1.60;;
42186;SDS011;27858;51.414;0.018;2023-06-22T14:37:07;1.67;;;1.58;;
42186;SDS011;27858;51.414;0.018;2023-06-22T14:39:35;8.85;;;2.85;;
42186;SDS011;27858;51.414;0.018;2023-06-22T14:42:02;2.40;;;2.08;;
42186;SDS011;27858;51.414;0.018;2023-06-22T14:44:29;4.03;;;1.73;;
42186;SDS011;27858;51.414;0.018;2023-06-22T14:46:57;2.28;;;1.80;;
42186;SDS011;27858;51.414;0.018;2023-06-22T14:49:24;2.05;;;1.88;;
42186;SDS011;27858;51.414;0.018;2023-06-22T14:51:50;3.35;;;2.35;;
42186;SDS011;27858;51.414;0.018;2023-06-22T14:54:17;3.88;;;1.88;;
42186;SDS011;27858;51.414;0.018;2023-06-22T14:56:44;4.20;;;2.50;;
42186;SDS011;27858;51.414;0.018;2023-06-22T14:59:11;1.85;;;1.73;;
42186;SDS011;27858;51.414;0.018;2023-06-22T15:01:38;8.10;;;2.58;;
42186;SDS011;27858;51.414;0.018;2023-06-22T15:04:07;5.47;;;2.00;;
42186;SDS011;27858;51.414;0.018;2023-06-22T15:06:34;3.88;;;2.88;;
42186;SDS011;27858;51.414;0.018;2023-06-22T15:09:00;2.60;;;2.03;;
42186;SDS011;27858;51.414;0.018;2023-06-22T15:11:27;2.80;;;2.30;;
42186;SDS011;27858;51.414;0.018;2023-06-22T15:13:57;2.80;;;2.40;;
42186;SDS011;27858;51.414;0.018;2023-06-22T15:16:25;4.93;;;2.47;;
42186;SDS011;27858;51.414;0.018;2023-06-22T15:18:52;2.40;;;1.95;;
42186;SDS011;27858;51.414;0.018;2023-06-22T15:21:19;2.13;;;2.00;;
42186;SDS011;27858;51.414;0.018;2023-06-22T15:23:46;2.97;;;2.38;;
42186;SDS011;27858;51.414;0.018;2023-06-22T15:26:12;2.47;;;2.15;;
42186;SDS011;27858;51.414;0.018;2023-06-22T15:28:39;2.15;;;1.85;;
42186;SDS011;27858;51.414;0.018;2023-06-22T15:31:06;7.57;;;3.33;;
42186;SDS011;27858;51.414;0.018;2023-06-22T15:33:33;4.65;;;2.45;;
42186;SDS011;27858;51.414;0.018;2023-06-22T15:36:03;5.10;;;2.30;;
42186;SDS011;27858;51.414;0.018;2023-06-22T15:38:32;3.20;;;2.45;;
42186;SDS011;27858;51.414;0.018;2023-06-22T15:40:59;2.20;;;2.00;;
42186;SDS011;27858;51.414;0.018;2023-06-22T15:43:27;2.25;;;2.05;;
42186;SDS011;27858;51.414;0.018;2023-06-22T15:45:54;3.40;;;2.58;;
42186;SDS011;27858;51.414;0.018;2023-06-22T15:48:21;2.75;;;2.38;;
42186;SDS011;27858;51.414;0.018;2023-06-22T15:50:48;3.00;;;2.40;;
42186;SDS011;27858;51.414;0.018;2023-06-22T15:53:15;2.10;;;1.98;;
42186;SDS011;27858;51.414;0.018;2023-06-22T15:55:42;4.18;;;2.40;;
42186;SDS011;27858;51.414;0.018;2023-06-22T15:58:09;2.40;;;2.20;;
42186;SDS011;27858;51.414;0.018;2023-06-22T16:00:38;4.32;;;2.05;;
42186;SDS011;27858;51.414;0.018;2023-06-22T16:03:05;6.22;;;2.00;;
42186;SDS011;27858;51.414;0.018;2023-06-22T16:05:32;2.15;;;2.03;;
42186;SDS011;27858;51.414;0.018;2023-06-22T16:07:59;2.13;;;1.85;;
42186;SDS011;27858;51.414;0.018;2023-06-22T16:10:26;2.25;;;2.00;;
42186;SDS011;27858;51.414;0.018;2023-06-22T16:12:53;6.15;;;3.30;;
42186;SDS011;27858;51.414;0.018;2023-06-22T16:15:20;4.70;;;2.53;;
42186;SDS011;27858;51.414;0.018;2023-06-22T16:17:46;2.03;;;1.92;;
42186;SDS011;27858;51.414;0.018;2023-06-22T16:20:13;2.40;;;2.17;;
42186;SDS011;27858;51.414;0.018;2023-06-22T16:22:43;3.65;;;2.50;;
42186;SDS011;27858;51.414;0.018;2023-06-22T16:25:12;3.90;;;1.92;;
42186;SDS011;27858;51.414;0.018;2023-06-22T16:27:39;5.00;;;2.78;;
42186;SDS011;27858;51.414;0.018;2023-06-22T16:30:06;3.55;;;2.25;;
42186;SDS011;27858;51.414;0.018;2023-06-22T16:32:34;2.75;;;2.20;;
42186;SDS011;27858;51.414;0.018;2023-06-22T16:35:01;4.15;;;2.47;;
42186;SDS011;27858;51.414;0.018;2023-06-22T16:37:28;5.13;;;2.53;;
42186;SDS011;27858;51.414;0.018;2023-06-22T16:39:56;2.53;;;1.98;;
42186;SDS011;27858;51.414;0.018;2023-06-22T16:42:23;3.95;;;2.45;;
42186;SDS011;27858;51.414;0.018;2023-06-22T16:44:50;3.28;;;2.10;;
42186;SDS011;27858;51.414;0.018;2023-06-22T16:47:17;4.93;;;2.80;;
42186;SDS011;27858;51.414;0.018;2023-06-22T16:49:46;3.70;;;2.33;;
42186;SDS011;27858;51.414;0.018;2023-06-22T16:52:13;2.25;;;1.90;;
42186;SDS011;27858;51.414;0.018;2023-06-22T16:54:40;2.97;;;2.10;;
42186;SDS011;27858;51.414;0.018;2023-06-22T16:57:24;3.72;;;2.03;;
42186;SDS011;27858;51.414;0.018;2023-06-22T16:59:54;7.40;;;1.98;;
42186;SDS011;27858;51.414;0.018;2023-06-22T17:02:22;4.80;;;2.33;;
42186;SDS011;27858;51.414;0.018;2023-06-22T17:04:52;2.67;;;2.42;;
42186;SDS011;27858;51.414;0.018;2023-06-22T17:07:20;5.28;;;2.33;;
42186;SDS011;27858;51.414;0.018;2023-06-22T17:09:48;2.40;;;2.17;;
42186;SDS011;27858;51.414;0.018;2023-06-22T17:12:18;2.00;;;1.58;;
42186;SDS011;27858;51.414;0.018;2023-06-22T17:14:44;1.90;;;1.50;;
42186;SDS011;27858;51.414;0.018;2023-06-22T17:17:12;4.90;;;1.60;;
42186;SDS011;27858;51.414;0.018;2023-06-22T17:19:43;2.60;;;1.65;;
42186;SDS011;27858;51.414;0.018;2023-06-22T17:22:11;3.13;;;2.20;;
42186;SDS011;27858;51.414;0.018;2023-06-22T17:24:39;9.68;;;1.52;;
42186;SDS011;27858;51.414;0.018;2023-06-22T17:27:06;3.33;;;1.55;;
42186;SDS011;27858;51.414;0.018;2023-06-22T17:29:33;6.10;;;1.40;;
42186;SDS011;27858;51.414;0.018;2023-06-22T17:32:04;1.77;;;1.45;;
42186;SDS011;27858;51.414;0.018;2023-06-22T17:34:31;2.95;;;1.67;;
42186;SDS011;27858;51.414;0.018;2023-06-22T17:36:58;3.22;;;1.50;;
42186;SDS011;27858;51.414;0.018;2023-06-22T17:39:26;1.45;;;1.25;;
42186;SDS011;27858;51.414;0.018;2023-06-22T17:41:57;1.52;;;1.33;;
42186;SDS011;27858;51.414;0.018;2023-06-22T17:44:24;2.80;;;2.03;;
42186;SDS011;27858;51.414;0.018;2023-06-22T17:46:56;2.40;;;2.20;;
42186;SDS011;27858;51.414;0.018;2023-06-22T17:49:29;2.53;;;1.80;;
42186;SDS011;27858;51.414;0.018;2023-06-22T17:52:00;2.03;;;1.83;;
42186;SDS011;27858;51.414;0.018;2023-06-22T17:54:30;3.42;;;1.73;;
42186;SDS011;27858;51.414;0.018;2023-06-22T17:57:16;2.97;;;1.60;;
42186;SDS011;27858;51.414;0.018;2023-06-22T17:59:50;3.45;;;1.98;;
42186;SDS011;27858;51.414;0.018;2023-06-22T18:02:23;1.48;;;1.20;;
42186;SDS011;27858;51.414;0.018;2023-06-22T18:04:58;2.95;;;1.60;;
42186;SDS011;27858;51.414;0.018;2023-06-22T18:07:29;2.58;;;1.92;;
42186;SDS011;27858;51.414;0.018;2023-06-22T18:09:59;4.85;;;1.55;;
42186;SDS011;27858;51.414;0.018;2023-06-22T18:12:26;3.50;;;1.50;;
42186;SDS011;27858;51.414;0.018;2023-06-22T18:14:54;2.50;;;1.77;;
42186;SDS011;27858;51.414;0.018;2023-06-22T18:17:21;2.92;;;1.42;;
42186;SDS011;27858;51.414;0.018;2023-06-22T18:19:50;5.32;;;2.80;;
42186;SDS011;27858;51.414;0.018;2023-06-22T18:22:17;2.35;;;1.60;;
42186;SDS011;27858;51.414;0.018;2023-06-22T18:24:44;7.03;;;1.77;;
42186;SDS011;27858;51.414;0.018;2023-06-22T18:27:12;2.58;;;1.73;;
42186;SDS011;27858;51.414;0.018;2023-06-22T18:29:41;5.07;;;1.95;;
42186;SDS011;27858;51.414;0.018;2023-06-22T18:32:11;4.38;;;1.60;;
42186;SDS011;27858;51.414;0.018;2023-06-22T18:34:38;2.90;;;1.90;;
42186;SDS011;27858;51.414;0.018;2023-06-22T18:37:07;2.75;;;1.80;;
42186;SDS011;27858;51.414;0.018;2023-06-22T18:39:38;3.75;;;1.52;;
42186;SDS011;27858;51.414;0.018;2023-06-22T18:42:08;4.38;;;1.60;;
42186;SDS011;27858;51.414;0.018;2023-06-22T18:44:39;4.47;;;1.73;;
42186;SDS011;27858;51.414;0.018;2023-06-22T18:47:08;2.38;;;1.73;;
42186;SDS011;27858;51.414;0.018;2023-06-22T18:52:06;3.22;;;2.00;;
42186;SDS011;27858;51.414;0.018;2023-06-22T18:54:50;2.30;;;1.50;;
42186;SDS011;27858;51.414;0.018;2023-06-22T19:00:03;3.90;;;1.38;;